Airfield :
LOGIN :

Register | Disclaimer

   EN    FR    IT 

 










Legend :    VFR   Marginal VFR   IFR   Intensive IFR   Very Intensive IFR
Visi :
Ceiling :
>= 8 km
>= 3000ft
5 to 8 km
1000 to 3000 ft
1500m to 5 km
500 to 1000 ft
800 to 1500m
200 to 500 ft
< 800m
< 200 ft
Symbols :   Thunderstorms  Fog  Heavy snow  Heavy precipitations  Wind > 20 kt
SIGMETs :     Misc.  Thunderstorms  Icing  Turbulence  Mountain Waves  Volcanic Ashes






- Airport Elevation : 325 ft
- IATA code : BES


LFRB - Brest

CURRENT METAR :
  • 060330Z AUTO 22008KT 9999 OVC007 10/10 Q1013 NOSIG

EXPIRED METARs :
  • 060300Z AUTO 22006KT 9999 OVC008 11/10 Q1012 NOSIG
  • 060230Z AUTO 24007KT 9999 OVC008 11/10 Q1012 NOSIG
  • 060200Z AUTO 24008KT 9999 BKN009 BKN015 OVC056 11/10 Q1011 NOSIG
  • 060130Z AUTO 25007KT 9999 SCT018 BKN039 BKN045 11/10 Q1011 BECMG BKN009
  • 060100Z AUTO 25006KT 220V280 9999 FEW016 SCT025 BKN033 11/10 Q1011 BECMG BKN009
  • 060030Z AUTO 27007KT 9999 BKN004 BKN015 BKN022 11/11 Q1010 BECMG BKN009

TAF TAF LFRB
Valid from the 06 at 00:00 until the 07 at 06:00 UTC


052300Z 0600/0706 21015KT 9999 BKN009
BECMG 0600/0602 27008KT
TEMPO 0606/0608 3000 BR
BECMG 0608/0610 BKN020
TEMPO 0623/0703 0500 FG VV///
ATIS : +33 2 98 32 02 71



MET'MAP, your aeronautical weather chart ! - Copyright ORBIFLY December 2007 - Disclaimer

ORBIFLY MET'MAP TEAM :

Programming & Development : Alexandra Zaïnal
Concept & original design : Baudouin d'Aumeries
Assistance for programming : Marc-Olivier Méhu
Technical & hardware support : Manuel Goepfert

Contact : metmap@orbifly.com




SOURCES & CREDITS :

   NOAA